Time;durP1;ratioP1;P1;durP2;ratioP2;P2;SDS_P1;SDS_P2;PMS_P1;PMS_P2;Temp;Humidity;BMP_temperature;BMP_pressure;BME280_temperature;BME280_humidity;BME280_pressure;Samples;Min_cycle;Max_cycle;Signal;HPM_P1;HPM_P2
2021/07/08 00:01:44;;;;;;;17.43;15.87;;;15.50;99.90;;;;;;5023638;28;20683;-71
2021/07/08 00:04:12;;;;;;;18.17;16.60;;;15.60;99.90;;;;;;5023278;28;20591;-71
2021/07/08 00:06:39;;;;;;;16.73;15.10;;;15.80;99.90;;;;;;5022433;28;20465;-70
2021/07/08 00:09:09;;;;;;;17.90;16.20;;;15.90;99.90;;;;;;5018831;28;20452;-70
2021/07/08 00:11:38;;;;;;;16.10;14.97;;;16.00;99.90;;;;;;5021701;28;20473;-70
2021/07/08 00:14:06;;;;;;;16.80;15.40;;;16.10;99.90;;;;;;5019923;28;20509;-70
2021/07/08 00:16:34;;;;;;;17.50;15.90;;;16.10;99.90;;;;;;5016814;28;20471;-69
2021/07/08 00:19:01;;;;;;;16.20;14.80;;;16.20;99.90;;;;;;5018170;28;20476;-70
2021/07/08 00:21:28;;;;;;;15.87;14.87;;;16.20;99.90;;;;;;5022960;28;20827;-70
2021/07/08 00:23:55;;;;;;;16.67;15.23;;;16.20;99.90;;;;;;5017453;28;20500;-72
2021/07/08 00:26:22;;;;;;;17.33;15.90;;;16.20;99.90;;;;;;5016725;28;20464;-69
2021/07/08 00:28:51;;;;;;;15.13;14.17;;;16.10;99.90;;;;;;5017654;28;20466;-70
2021/07/08 00:31:18;;;;;;;16.77;15.03;;;16.00;99.90;;;;;;5020890;28;21023;-69
2021/07/08 00:33:46;;;;;;;16.83;15.47;;;15.80;99.90;;;;;;5020026;28;20464;-70
2021/07/08 00:36:15;;;;;;;17.43;16.33;;;15.80;99.90;;;;;;5021083;28;20974;-70
2021/07/08 00:38:43;;;;;;;19.00;17.10;;;15.70;99.90;;;;;;5022054;28;20485;-71
2021/07/08 00:41:10;;;;;;;20.93;16.73;;;15.70;99.90;;;;;;5022893;28;21018;-70
2021/07/08 00:43:37;;;;;;;17.67;16.00;;;15.70;99.90;;;;;;5017422;28;20858;-71
2021/07/08 00:46:07;;;;;;;17.17;15.70;;;15.70;99.90;;;;;;5024688;28;20530;-70
2021/07/08 00:48:34;;;;;;;17.90;16.13;;;15.60;99.90;;;;;;5015481;28;20707;-69
2021/07/08 00:51:03;;;;;;;18.10;16.40;;;15.50;99.90;;;;;;5022204;28;20468;-70
2021/07/08 00:53:30;;;;;;;18.10;16.80;;;15.40;99.90;;;;;;5016062;28;20468;-71
2021/07/08 00:55:59;;;;;;;17.63;16.53;;;15.40;99.90;;;;;;5023496;28;20500;-70
2021/07/08 00:58:26;;;;;;;18.57;17.27;;;15.40;99.90;;;;;;5017537;28;20932;-71
2021/07/08 01:00:53;;;;;;;18.13;17.03;;;15.30;99.90;;;;;;5020318;28;20457;-70
2021/07/08 01:03:22;;;;;;;18.10;17.10;;;15.20;99.90;;;;;;5019651;28;20500;-72
2021/07/08 01:05:53;;;;;;;18.20;17.20;;;15.10;99.90;;;;;;5017914;28;21014;-70
2021/07/08 01:08:22;;;;;;;17.50;16.50;;;15.10;99.90;;;;;;5023728;28;20465;-70
2021/07/08 01:10:51;;;;;;;19.27;17.37;;;15.10;99.90;;;;;;5016418;28;20460;-70
2021/07/08 01:13:19;;;;;;;17.90;16.70;;;15.10;99.90;;;;;;5023577;28;20542;-70
2021/07/08 01:15:46;;;;;;;18.23;17.10;;;15.00;99.90;;;;;;5024258;28;20463;-70
2021/07/08 01:18:14;;;;;;;18.97;17.23;;;14.90;99.90;;;;;;5024185;28;20460;-70
2021/07/08 01:20:44;;;;;;;18.70;17.50;;;14.90;99.90;;;;;;5022997;28;20805;-71
2021/07/08 01:23:12;;;;;;;18.47;17.13;;;14.90;99.90;;;;;;5022719;28;20917;-72
2021/07/08 01:25:42;;;;;;;17.83;16.50;;;14.90;99.90;;;;;;5024583;28;20951;-71
2021/07/08 01:28:12;;;;;;;20.47;18.40;;;14.80;99.90;;;;;;5020826;28;20980;-70
2021/07/08 01:30:39;;;;;;;18.67;17.30;;;14.80;99.90;;;;;;5024104;28;20460;-71
2021/07/08 01:33:08;;;;;;;17.50;16.20;;;14.80;99.90;;;;;;5023458;28;20488;-70
2021/07/08 01:35:35;;;;;;;18.53;16.93;;;14.70;99.90;;;;;;5020367;28;20824;-70
2021/07/08 01:38:03;;;;;;;19.00;17.40;;;14.70;99.90;;;;;;5026217;28;20466;-70
2021/07/08 01:40:33;;;;;;;22.60;17.50;;;14.70;99.90;;;;;;5023686;28;20568;-70
2021/07/08 01:43:00;;;;;;;19.03;17.70;;;14.70;99.90;;;;;;5022294;28;20575;-71
2021/07/08 01:45:27;;;;;;;18.70;17.00;;;14.70;99.90;;;;;;5019366;28;20558;-71
2021/07/08 01:47:54;;;;;;;20.20;18.23;;;14.60;99.90;;;;;;5025834;28;20457;-70
2021/07/08 01:50:23;;;;;;;19.63;17.93;;;14.60;99.90;;;;;;5023360;28;20472;-70
2021/07/08 01:52:52;;;;;;;19.53;18.10;;;14.60;99.90;;;;;;5022320;28;20474;-71
2021/07/08 01:55:18;;;;;;;19.70;18.10;;;14.60;99.90;;;;;;5021293;28;20494;-71
2021/07/08 01:57:51;;;;;;;20.00;18.17;;;14.60;99.90;;;;;;5017750;28;20475;-69
2021/07/08 02:00:20;;;;;;;19.60;18.30;;;14.50;99.90;;;;;;5021689;28;20911;-71
2021/07/08 02:02:48;;;;;;;19.77;18.23;;;14.50;99.90;;;;;;5022452;28;20553;-70
2021/07/08 02:05:16;;;;;;;19.87;18.00;;;14.50;99.90;;;;;;5026333;28;20945;-69
2021/07/08 02:07:43;;;;;;;20.13;18.67;;;14.40;99.90;;;;;;5025791;28;20507;-70
2021/07/08 02:10:12;;;;;;;19.47;18.07;;;14.40;99.90;;;;;;5024182;28;20452;-71
2021/07/08 02:12:39;;;;;;;19.73;18.20;;;14.30;99.90;;;;;;5018626;28;20461;-71
2021/07/08 02:15:10;;;;;;;20.97;18.90;;;14.30;99.90;;;;;;5024989;28;20466;-71
2021/07/08 02:17:37;;;;;;;20.90;18.90;;;14.20;99.90;;;;;;5015946;28;20480;-71
2021/07/08 02:20:07;;;;;;;19.37;18.07;;;14.10;99.90;;;;;;5021389;28;20473;-69
2021/07/08 02:22:35;;;;;;;20.00;18.50;;;14.10;99.90;;;;;;5020894;28;20468;-71
2021/07/08 02:25:03;;;;;;;19.47;17.97;;;14.00;99.90;;;;;;5021917;28;20619;-71
2021/07/08 02:27:31;;;;;;;18.83;17.47;;;13.90;99.90;;;;;;5023191;28;20465;-71
2021/07/08 02:29:58;;;;;;;20.23;18.63;;;13.90;99.90;;;;;;5020431;28;20474;-71
2021/07/08 02:32:27;;;;;;;19.33;18.00;;;13.90;99.90;;;;;;5023907;28;20496;-71
2021/07/08 02:34:56;;;;;;;19.70;18.00;;;13.90;99.90;;;;;;5021324;28;20461;-71
2021/07/08 02:37:22;;;;;;;20.43;18.80;;;13.90;99.90;;;;;;5024854;28;20461;-71
2021/07/08 02:39:49;;;;;;;22.00;18.00;;;13.90;99.90;;;;;;5026480;28;20507;-70
2021/07/08 02:42:17;;;;;;;20.03;18.23;;;13.80;99.90;;;;;;5023553;28;20855;-70
2021/07/08 02:44:44;;;;;;;20.23;18.67;;;13.80;99.90;;;;;;5018046;28;20491;-71
2021/07/08 02:47:10;;;;;;;20.07;18.37;;;13.80;99.90;;;;;;5024521;28;20470;-71
2021/07/08 02:49:39;;;;;;;20.07;18.50;;;13.80;99.90;;;;;;5020310;28;20468;-71
2021/07/08 02:52:06;;;;;;;20.07;18.57;;;13.80;99.90;;;;;;5023185;28;20903;-71
2021/07/08 02:54:33;;;;;;;20.37;18.60;;;13.70;99.90;;;;;;5019915;28;20465;-71
2021/07/08 02:57:01;;;;;;;20.33;18.10;;;13.70;99.90;;;;;;5019496;28;20564;-72
2021/07/08 02:59:28;;;;;;;20.17;18.33;;;13.60;99.90;;;;;;5024411;28;20841;-72
2021/07/08 03:01:55;;;;;;;19.60;18.10;;;13.60;99.90;;;;;;5020674;28;20717;-71
2021/07/08 03:04:22;;;;;;;20.67;19.07;;;13.50;99.90;;;;;;5028200;28;20539;-71
2021/07/08 03:06:52;;;;;;;20.63;18.93;;;13.50;99.90;;;;;;5023844;28;20472;-70
2021/07/08 03:09:19;;;;;;;20.87;19.07;;;13.50;99.90;;;;;;5019569;28;20556;-70
2021/07/08 03:11:46;;;;;;;21.30;19.10;;;13.50;99.90;;;;;;5023481;28;20551;-72
2021/07/08 03:14:12;;;;;;;19.10;17.50;;;13.40;99.90;;;;;;5019696;28;20465;-72
2021/07/08 03:16:39;;;;;;;20.57;18.40;;;13.40;99.90;;;;;;5024564;28;20461;-71
2021/07/08 03:19:07;;;;;;;18.60;17.10;;;13.40;99.90;;;;;;5022563;28;20468;-72
2021/07/08 03:21:34;;;;;;;20.00;18.23;;;13.40;99.90;;;;;;5020733;28;20468;-71
2021/07/08 03:24:03;;;;;;;18.97;17.77;;;13.40;99.90;;;;;;5022862;28;21085;-71
2021/07/08 03:26:30;;;;;;;19.30;17.90;;;13.40;99.90;;;;;;5016917;28;20469;-72
2021/07/08 03:28:57;;;;;;;19.27;17.90;;;13.30;99.90;;;;;;5023620;28;20456;-70
2021/07/08 03:31:25;;;;;;;21.20;17.70;;;13.30;99.90;;;;;;5018520;28;20473;-73
2021/07/08 03:33:52;;;;;;;21.87;19.60;;;13.20;99.90;;;;;;5021237;28;20876;-70
2021/07/08 03:36:19;;;;;;;26.27;17.90;;;13.20;99.90;;;;;;5021027;28;20586;-71
2021/07/08 03:38:46;;;;;;;19.57;18.07;;;13.20;99.90;;;;;;5020987;28;20465;-71
2021/07/08 03:41:14;;;;;;;20.47;18.83;;;13.20;99.90;;;;;;5025164;28;20485;-70
2021/07/08 03:43:41;;;;;;;18.60;17.20;;;13.20;99.90;;;;;;5021985;28;20495;-71
2021/07/08 03:46:08;;;;;;;19.23;17.83;;;13.10;99.90;;;;;;5021889;28;20459;-70
2021/07/08 03:48:35;;;;;;;20.10;18.70;;;13.10;99.90;;;;;;5022439;28;20472;-71
2021/07/08 03:51:02;;;;;;;19.60;18.00;;;13.10;99.90;;;;;;5020119;28;20466;-71
2021/07/08 03:53:29;;;;;;;18.53;17.23;;;13.10;99.90;;;;;;5021672;28;20526;-70
2021/07/08 03:55:56;;;;;;;18.93;17.63;;;13.20;99.90;;;;;;5019633;28;20461;-69
2021/07/08 03:58:25;;;;;;;19.30;17.80;;;13.10;99.90;;;;;;5020742;28;20823;-70
2021/07/08 04:00:52;;;;;;;18.60;17.30;;;13.10;99.90;;;;;;5019091;28;20453;-70
2021/07/08 04:03:21;;;;;;;18.70;17.50;;;13.20;99.90;;;;;;5021612;28;20532;-70
2021/07/08 04:05:48;;;;;;;18.67;17.37;;;13.20;99.90;;;;;;5026578;28;20468;-70
2021/07/08 04:08:17;;;;;;;19.67;18.00;;;13.30;99.90;;;;;;5018063;28;20466;-69
2021/07/08 04:10:45;;;;;;;18.80;17.30;;;13.40;99.90;;;;;;5023153;28;20559;-70
2021/07/08 04:13:16;;;;;;;20.17;18.30;;;13.40;99.90;;;;;;5018672;28;20549;-72
2021/07/08 04:15:47;;;;;;;19.20;17.90;;;13.40;99.90;;;;;;5018990;28;20469;-69
2021/07/08 04:18:17;;;;;;;19.13;17.43;;;13.40;99.90;;;;;;5023115;28;20465;-70
2021/07/08 04:20:44;;;;;;;18.77;17.40;;;13.40;99.90;;;;;;5023602;28;20472;-71
2021/07/08 04:23:12;;;;;;;36.73;19.83;;;13.50;99.90;;;;;;5021593;28;20464;-71
2021/07/08 04:25:40;;;;;;;25.40;18.13;;;13.50;99.90;;;;;;5021168;28;20509;-69
2021/07/08 04:28:07;;;;;;;18.50;17.13;;;13.50;99.90;;;;;;5016943;28;20464;-70
2021/07/08 04:30:36;;;;;;;20.60;18.47;;;13.60;99.90;;;;;;5015696;28;20460;-71
2021/07/08 04:33:04;;;;;;;20.00;18.43;;;13.60;99.90;;;;;;5019176;28;20489;-71
2021/07/08 04:35:33;;;;;;;19.50;17.70;;;13.60;99.90;;;;;;5022207;28;20460;-71
2021/07/08 04:38:00;;;;;;;19.67;17.60;;;13.60;99.90;;;;;;5024565;28;20556;-71
2021/07/08 04:40:28;;;;;;;21.33;18.93;;;13.80;99.90;;;;;;5019139;28;20492;-70
2021/07/08 04:42:55;;;;;;;18.77;17.47;;;13.80;99.90;;;;;;5023613;28;20472;-71
2021/07/08 04:45:24;;;;;;;20.73;18.50;;;13.90;99.90;;;;;;5023795;28;20492;-70
2021/07/08 04:47:51;;;;;;;20.57;18.67;;;14.00;99.90;;;;;;5020519;28;20555;-71
2021/07/08 04:50:21;;;;;;;20.97;19.00;;;13.90;99.90;;;;;;5020473;28;20479;-72
2021/07/08 04:52:49;;;;;;;19.90;18.30;;;14.10;99.90;;;;;;5023534;28;21077;-71
2021/07/08 04:55:18;;;;;;;19.37;17.70;;;14.20;99.90;;;;;;5022778;28;20458;-71
2021/07/08 04:57:45;;;;;;;19.63;17.60;;;14.30;99.90;;;;;;5025113;28;20473;-71
2021/07/08 05:00:14;;;;;;;20.20;18.27;;;14.50;99.90;;;;;;5026736;28;20830;-71
2021/07/08 05:02:43;;;;;;;18.47;17.03;;;14.60;99.90;;;;;;5020742;28;20544;-70
2021/07/08 05:05:14;;;;;;;19.03;17.53;;;14.70;99.90;;;;;;5024206;28;20503;-71
2021/07/08 05:07:42;;;;;;;18.97;17.60;;;14.70;99.90;;;;;;5022294;28;20454;-72
2021/07/08 05:10:11;;;;;;;19.87;17.97;;;14.80;99.90;;;;;;5022515;28;20466;-71
2021/07/08 05:12:38;;;;;;;19.13;17.30;;;14.90;99.90;;;;;;5027286;28;20607;-71
2021/07/08 05:15:07;;;;;;;19.90;17.50;;;15.00;99.90;;;;;;5023593;28;20468;-70
2021/07/08 05:17:34;;;;;;;17.87;16.60;;;15.10;99.90;;;;;;5025674;28;20526;-71
2021/07/08 05:20:02;;;;;;;19.00;17.07;;;15.20;99.90;;;;;;5022150;28;20472;-71
2021/07/08 05:22:32;;;;;;;19.17;17.77;;;15.30;99.90;;;;;;5023668;28;20971;-71
2021/07/08 05:25:01;;;;;;;20.73;16.80;;;15.40;99.90;;;;;;5019817;28;20489;-71
2021/07/08 05:27:30;;;;;;;19.27;17.80;;;15.40;99.90;;;;;;5023294;28;20506;-71
2021/07/08 05:29:57;;;;;;;19.03;17.20;;;15.50;99.90;;;;;;5024001;28;20881;-71
2021/07/08 05:32:25;;;;;;;18.83;17.23;;;15.70;99.90;;;;;;5027270;28;21033;-72
2021/07/08 05:34:52;;;;;;;19.40;17.70;;;15.90;99.90;;;;;;5019384;28;20833;-71
2021/07/08 05:37:19;;;;;;;24.17;18.30;;;16.10;99.90;;;;;;5022722;28;20838;-72
2021/07/08 05:39:46;;;;;;;19.63;17.60;;;16.30;99.90;;;;;;5018979;28;21041;-71
2021/07/08 05:42:15;;;;;;;19.63;17.73;;;16.50;99.90;;;;;;5028121;28;20467;-71
2021/07/08 05:44:43;;;;;;;23.93;18.40;;;16.60;99.90;;;;;;5022021;28;21019;-70
2021/07/08 05:47:11;;;;;;;35.80;19.10;;;16.70;99.90;;;;;;5026882;28;20564;-71
2021/07/08 05:49:38;;;;;;;24.97;18.27;;;16.80;99.90;;;;;;5024328;28;20468;-71
2021/07/08 05:52:06;;;;;;;23.83;18.90;;;17.00;99.90;;;;;;5023116;28;20479;-71
2021/07/08 05:54:33;;;;;;;21.60;19.30;;;16.90;99.90;;;;;;5027643;28;20472;-71
2021/07/08 05:57:00;;;;;;;29.53;18.80;;;16.90;99.90;;;;;;5024029;28;20469;-71
2021/07/08 05:59:29;;;;;;;22.40;18.97;;;17.00;99.90;;;;;;5022554;28;20542;-70
2021/07/08 06:01:57;;;;;;;22.13;18.83;;;17.10;99.90;;;;;;5022638;28;20457;-71
2021/07/08 06:04:24;;;;;;;24.13;18.30;;;17.20;99.90;;;;;;5021063;28;20489;-72
2021/07/08 06:06:51;;;;;;;19.00;17.30;;;17.30;99.90;;;;;;5019654;28;21062;-71
2021/07/08 06:09:18;;;;;;;18.03;16.47;;;17.40;99.90;;;;;;5022199;28;20460;-70
2021/07/08 06:11:45;;;;;;;18.53;16.97;;;17.60;99.90;;;;;;5021567;28;20543;-71
2021/07/08 06:14:13;;;;;;;20.13;17.17;;;17.80;99.90;;;;;;5024474;28;20484;-71
2021/07/08 06:16:42;;;;;;;18.83;17.20;;;17.90;99.90;;;;;;5018565;28;21001;-71
2021/07/08 06:19:09;;;;;;;18.40;16.53;;;18.00;99.90;;;;;;5016016;28;20479;-70
2021/07/08 06:21:36;;;;;;;16.97;15.53;;;18.30;99.90;;;;;;5019324;28;20465;-70
2021/07/08 06:24:03;;;;;;;17.27;15.53;;;18.50;99.90;;;;;;5024904;28;20473;-70
2021/07/08 06:26:30;;;;;;;18.80;17.30;;;18.70;99.90;;;;;;5024815;28;20523;-71
2021/07/08 06:28:57;;;;;;;19.83;17.13;;;18.70;99.90;;;;;;5025223;28;20495;-71
2021/07/08 06:31:24;;;;;;;19.80;18.10;;;18.60;99.90;;;;;;5021944;28;20469;-71
2021/07/08 06:33:53;;;;;;;19.20;17.13;;;18.70;99.90;;;;;;5023363;28;20952;-70
2021/07/08 06:36:21;;;;;;;18.80;17.30;;;18.70;99.90;;;;;;5020333;28;20472;-70
2021/07/08 06:38:49;;;;;;;18.57;17.27;;;19.00;99.90;;;;;;5022476;28;20468;-70
2021/07/08 06:41:16;;;;;;;18.50;17.00;;;19.30;99.90;;;;;;5019197;28;20484;-72
2021/07/08 06:43:44;;;;;;;18.17;16.93;;;19.50;99.90;;;;;;5022396;28;20472;-70
2021/07/08 06:46:15;;;;;;;18.50;16.83;;;19.70;99.90;;;;;;5023001;28;21113;-72
2021/07/08 06:48:42;;;;;;;17.47;16.27;;;20.10;99.90;;;;;;5025669;28;20887;-70
2021/07/08 06:51:10;;;;;;;16.77;15.67;;;20.20;99.90;;;;;;5024123;28;20631;-72
2021/07/08 06:53:38;;;;;;;19.43;17.50;;;20.40;99.90;;;;;;5018355;28;20461;-71
2021/07/08 06:56:05;;;;;;;17.80;16.37;;;20.40;99.90;;;;;;5018105;28;20825;-72
2021/07/08 06:58:32;;;;;;;17.70;16.40;;;20.30;99.90;;;;;;5020449;28;20460;-70
2021/07/08 07:00:58;;;;;;;18.07;16.20;;;20.40;99.90;;;;;;5015446;28;20857;-70
2021/07/08 07:03:26;;;;;;;17.63;16.50;;;20.80;99.90;;;;;;5008635;28;20548;-70
2021/07/08 07:05:53;;;;;;;18.47;16.73;;;20.90;99.90;;;;;;5019972;28;21108;-70
2021/07/08 07:08:22;;;;;;;17.20;16.10;;;20.80;99.90;;;;;;5023486;28;20483;-72
2021/07/08 07:10:49;;;;;;;17.07;16.07;;;21.10;99.90;;;;;;5022097;28;20464;-71
2021/07/08 07:13:16;;;;;;;17.13;15.90;;;21.20;99.90;;;;;;5027147;28;20971;-70
2021/07/08 07:15:43;;;;;;;17.40;16.30;;;21.30;99.90;;;;;;5022443;28;20467;-71
2021/07/08 07:18:10;;;;;;;18.00;16.60;;;21.40;99.90;;;;;;5021614;28;20467;-71
2021/07/08 07:20:38;;;;;;;17.03;15.60;;;21.60;99.90;;;;;;5021502;28;20464;-70
2021/07/08 07:23:05;;;;;;;16.63;15.33;;;21.70;99.90;;;;;;5025896;28;20987;-70
2021/07/08 07:25:39;;;;;;;16.90;15.70;;;21.80;99.90;;;;;;5022237;28;20492;-71
2021/07/08 07:28:08;;;;;;;17.53;16.03;;;21.70;99.90;;;;;;5020067;28;20521;-72
2021/07/08 07:30:35;;;;;;;17.30;16.10;;;21.90;99.90;;;;;;5022486;28;20480;-71
2021/07/08 07:33:04;;;;;;;18.03;16.97;;;21.90;99.90;;;;;;5022030;28;20489;-71
2021/07/08 07:35:31;;;;;;;17.40;16.03;;;22.00;99.90;;;;;;5017276;28;20996;-70
2021/07/08 07:37:58;;;;;;;16.73;15.50;;;21.90;99.90;;;;;;5025121;28;20480;-69
2021/07/08 07:40:25;;;;;;;18.40;17.10;;;22.10;99.90;;;;;;5025565;28;21123;-71
2021/07/08 07:42:54;;;;;;;20.87;17.63;;;22.10;99.90;;;;;;5022397;28;21027;-72
2021/07/08 07:45:22;;;;;;;17.07;15.83;;;22.00;99.90;;;;;;5018741;28;20585;-71
2021/07/08 07:47:52;;;;;;;18.00;16.50;;;21.70;99.90;;;;;;5018664;28;20461;-71
2021/07/08 07:50:20;;;;;;;16.90;15.80;;;21.90;99.90;;;;;;5019333;28;20975;-72
2021/07/08 07:52:47;;;;;;;17.77;16.37;;;22.20;99.90;;;;;;5021749;28;20465;-71
2021/07/08 07:55:16;;;;;;;18.33;16.83;;;22.30;99.90;;;;;;5023764;28;20456;-70
2021/07/08 07:57:45;;;;;;;18.17;16.67;;;22.30;99.90;;;;;;5024218;28;20967;-70
2021/07/08 08:00:14;;;;;;;21.63;17.17;;;22.40;99.90;;;;;;5017789;28;20478;-71
2021/07/08 08:02:41;;;;;;;17.87;16.50;;;22.50;99.90;;;;;;5023151;28;20480;-70
2021/07/08 08:05:21;;;;;;;17.60;16.13;;;22.70;99.90;;;;;;5022481;28;20532;-72
2021/07/08 08:10:33;;;;;;;18.90;17.20;;;23.10;99.90;;;;;;5024321;28;20452;-71
2021/07/08 08:13:00;;;;;;;17.80;16.60;;;23.40;99.90;;;;;;5016519;28;20557;-70
2021/07/08 08:15:30;;;;;;;18.10;16.60;;;23.60;99.90;;;;;;5022002;28;20471;-71
2021/07/08 08:18:00;;;;;;;17.77;16.70;;;23.90;99.90;;;;;;5023234;28;20461;-71
2021/07/08 08:20:28;;;;;;;18.33;16.90;;;23.80;99.90;;;;;;5015643;28;20471;-73
2021/07/08 08:22:55;;;;;;;17.10;16.00;;;24.00;99.90;;;;;;5022130;28;20469;-71
2021/07/08 08:25:22;;;;;;;16.77;15.67;;;24.50;99.90;;;;;;5026794;28;20983;-70
2021/07/08 08:27:50;;;;;;;18.27;16.77;;;24.90;99.90;;;;;;5023439;28;20465;-72
2021/07/08 08:30:17;;;;;;;17.27;16.27;;;25.20;99.90;;;;;;5026490;28;20456;-71
2021/07/08 08:32:48;;;;;;;17.63;16.20;;;25.20;99.90;;;;;;5018125;28;20481;-71
2021/07/08 08:35:15;;;;;;;18.70;16.93;;;25.40;99.90;;;;;;5027122;28;20515;-71
2021/07/08 08:37:43;;;;;;;16.67;15.60;;;25.10;99.90;;;;;;5027281;28;20475;-71
2021/07/08 08:40:12;;;;;;;17.87;16.60;;;25.20;99.90;;;;;;5024334;28;20492;-70
2021/07/08 08:42:40;;;;;;;17.13;16.10;;;25.30;99.90;;;;;;5019406;28;21068;-71
2021/07/08 08:45:11;;;;;;;19.30;17.90;;;25.80;99.90;;;;;;5019917;28;20456;-71
2021/07/08 08:48:02;;;;;;;17.07;15.60;;;25.40;99.90;;;;;;5026873;28;20948;-71
2021/07/08 08:50:32;;;;;;;18.27;16.60;;;26.10;99.90;;;;;;5024124;28;20499;-73
2021/07/08 08:53:00;;;;;;;18.37;16.90;;;26.50;99.90;;;;;;5028257;28;21059;-70
2021/07/08 08:55:28;;;;;;;17.90;16.17;;;26.60;99.90;;;;;;5023996;28;20974;-70
2021/07/08 08:57:55;;;;;;;16.73;15.40;;;27.00;99.90;;;;;;5022738;28;20988;-72
2021/07/08 09:00:48;;;;;;;17.37;16.00;;;27.30;99.90;;;;;;5024821;28;20549;-70
2021/07/08 09:03:19;;;;;;;18.20;16.70;;;27.30;99.90;;;;;;5023641;28;20540;-71
2021/07/08 09:05:50;;;;;;;17.77;16.33;;;27.80;99.90;;;;;;5025328;28;20493;-73
2021/07/08 09:08:20;;;;;;;17.27;16.10;;;26.90;99.90;;;;;;5021602;28;20503;-71
2021/07/08 09:10:50;;;;;;;17.30;16.00;;;26.50;99.90;;;;;;5028849;28;20570;-71
2021/07/08 09:13:18;;;;;;;18.70;16.73;;;26.20;99.90;;;;;;5025211;28;20471;-71
2021/07/08 09:15:47;;;;;;;18.70;16.43;;;25.30;99.90;;;;;;5019721;28;20563;-71
2021/07/08 09:18:15;;;;;;;17.17;15.97;;;26.20;99.90;;;;;;5020683;28;20857;-72
2021/07/08 09:20:44;;;;;;;21.67;15.70;;;27.10;99.90;;;;;;5023762;28;20495;-70
2021/07/08 09:23:14;;;;;;;16.77;15.53;;;28.00;99.90;;;;;;5029459;28;20464;-71
2021/07/08 09:25:43;;;;;;;15.93;14.93;;;27.80;99.90;;;;;;5021646;28;20848;-71
2021/07/08 09:28:17;;;;;;;18.10;16.80;;;28.00;99.90;;;;;;5023214;28;20492;-71
2021/07/08 09:30:46;;;;;;;16.70;15.27;;;28.60;99.90;;;;;;5027568;28;20464;-70
2021/07/08 09:33:33;;;;;;;16.60;15.50;;;28.70;99.90;;;;;;5027905;28;20515;-71
2021/07/08 09:36:14;;;;;;;15.90;14.80;;;28.30;99.90;;;;;;5027791;28;20469;-71
2021/07/08 09:38:44;;;;;;;15.57;14.57;;;27.90;99.90;;;;;;5022788;28;20454;-74
2021/07/08 09:41:17;;;;;;;16.80;15.33;;;28.10;99.90;;;;;;5026846;28;20672;-71
2021/07/08 09:43:44;;;;;;;14.63;13.83;;;27.70;99.90;;;;;;5021759;28;20528;-71
2021/07/08 09:46:13;;;;;;;16.10;15.10;;;28.20;99.90;;;;;;5025962;28;20493;-73
2021/07/08 09:48:41;;;;;;;15.53;14.73;;;28.20;99.90;;;;;;5028919;28;20824;-70
2021/07/08 09:51:08;;;;;;;15.63;14.63;;;28.20;99.90;;;;;;5022336;28;20457;-72
2021/07/08 09:53:51;;;;;;;15.13;14.30;;;28.80;99.90;;;;;;5029455;28;20507;-71
2021/07/08 09:59:03;;;;;;;15.30;13.80;;;29.20;99.90;;;;;;5017821;28;20457;-71
2021/07/08 10:01:30;;;;;;;14.93;13.93;;;28.10;99.90;;;;;;5022976;28;20551;-71
2021/07/08 10:03:57;;;;;;;15.33;14.20;;;28.30;99.90;;;;;;5021739;28;20472;-71
2021/07/08 10:06:26;;;;;;;16.33;15.00;;;28.20;99.90;;;;;;5025831;28;20583;-71
2021/07/08 10:08:57;;;;;;;15.80;14.60;;;27.90;99.90;;;;;;5027223;28;20464;-70
2021/07/08 10:11:25;;;;;;;15.67;14.60;;;28.40;99.90;;;;;;5026024;28;20479;-71
2021/07/08 10:13:52;;;;;;;16.03;15.00;;;28.00;99.90;;;;;;5026137;28;20472;-74
2021/07/08 10:16:20;;;;;;;15.80;14.80;;;28.40;99.90;;;;;;5022219;28;20956;-73
2021/07/08 10:18:48;;;;;;;16.17;14.90;;;28.50;99.90;;;;;;5025316;28;20468;-71
2021/07/08 10:21:18;;;;;;;14.73;13.93;;;28.80;99.90;;;;;;5025490;28;20461;-72
2021/07/08 10:23:45;;;;;;;16.17;15.10;;;29.00;99.90;;;;;;5020778;28;20464;-71
2021/07/08 10:26:14;;;;;;;16.83;15.50;;;29.30;99.90;;;;;;5015689;28;20543;-72
2021/07/08 10:28:43;;;;;;;17.43;16.13;;;29.80;99.90;;;;;;5023264;28;20472;-71
2021/07/08 10:31:15;;;;;;;16.23;15.23;;;29.60;99.90;;;;;;5021404;28;20472;-70
2021/07/08 10:33:41;;;;;;;16.27;15.20;;;30.30;99.90;;;;;;5020518;28;20503;-74
2021/07/08 10:36:08;;;;;;;16.00;14.70;;;30.40;99.20;;;;;;5020927;28;20477;-71
2021/07/08 10:38:38;;;;;;;14.90;14.17;;;30.70;98.00;;;;;;5016729;28;20463;-72
2021/07/08 10:41:47;;;;;;;15.43;14.43;;;30.80;97.20;;;;;;5022356;28;20574;-71
2021/07/08 10:44:56;;;;;;;15.13;13.77;;;30.20;97.00;;;;;;5007723;28;20474;-71
2021/07/08 10:47:43;;;;;;;15.70;14.80;;;30.20;96.70;;;;;;5011969;28;20496;-70
2021/07/08 10:50:35;;;;;;;16.27;15.30;;;30.10;97.40;;;;;;5020866;28;20550;-75
2021/07/08 10:53:22;;;;;;;16.10;15.10;;;30.40;98.10;;;;;;5019217;28;20843;-71
2021/07/08 10:55:54;;;;;;;17.50;16.33;;;30.40;98.10;;;;;;5016455;28;20832;-71
2021/07/08 10:58:44;;;;;;;16.07;15.10;;;30.20;98.30;;;;;;5019096;28;20972;-71
2021/07/08 11:01:32;;;;;;;15.50;14.60;;;29.90;98.80;;;;;;5027440;28;20684;-70
2021/07/08 11:04:01;;;;;;;16.70;15.53;;;29.90;98.80;;;;;;5024073;28;20519;-70
2021/07/08 11:06:30;;;;;;;16.73;15.63;;;29.30;99.20;;;;;;5019006;28;20490;-70
2021/07/08 11:09:02;;;;;;;14.77;13.57;;;29.10;99.40;;;;;;5020194;28;20462;-73
2021/07/08 11:12:07;;;;;;;14.80;14.00;;;29.10;99.90;;;;;;5025132;28;20462;-70
2021/07/08 11:14:39;;;;;;;16.20;14.67;;;28.80;99.90;;;;;;5020203;28;20496;-70
2021/07/08 11:17:21;;;;;;;16.30;15.17;;;28.30;99.90;;;;;;5023142;28;20899;-70
2021/07/08 11:19:51;;;;;;;16.07;14.87;;;28.00;99.90;;;;;;5025600;28;20456;-73
2021/07/08 11:22:32;;;;;;;17.97;16.40;;;27.70;99.90;;;;;;5025402;28;20548;-70
2021/07/08 11:25:00;;;;;;;16.00;14.80;;;27.70;99.90;;;;;;5024726;28;20464;-71
2021/07/08 11:27:39;;;;;;;16.17;15.07;;;27.80;99.90;;;;;;5025085;28;20499;-70
2021/07/08 11:30:31;;;;;;;16.90;15.60;;;27.80;99.90;;;;;;5019140;28;20463;-70
2021/07/08 11:33:03;;;;;;;16.53;15.47;;;28.20;99.90;;;;;;5024555;28;20485;-70
2021/07/08 11:35:33;;;;;;;15.40;14.50;;;28.60;99.90;;;;;;5026014;28;20473;-71
2021/07/08 11:38:02;;;;;;;16.23;14.90;;;28.70;99.90;;;;;;5021651;28;20464;-70
2021/07/08 11:40:36;;;;;;;16.70;15.50;;;28.70;99.90;;;;;;5025599;28;20539;-74
2021/07/08 11:43:15;;;;;;;16.27;15.07;;;28.70;99.90;;;;;;5027869;28;20488;-71
2021/07/08 11:45:44;;;;;;;16.50;14.90;;;28.40;99.90;;;;;;5023361;28;20460;-74
2021/07/08 11:48:27;;;;;;;23.33;15.83;;;28.60;99.90;;;;;;5022073;28;20473;-70
2021/07/08 11:50:55;;;;;;;15.57;14.17;;;28.50;99.90;;;;;;5020570;28;20559;-71
2021/07/08 11:53:22;;;;;;;15.93;14.57;;;28.70;99.90;;;;;;5024956;28;20461;-70
2021/07/08 11:55:51;;;;;;;14.87;14.07;;;28.80;99.90;;;;;;5025647;28;20938;-70
2021/07/08 11:58:22;;;;;;;15.27;14.27;;;28.30;99.90;;;;;;5023665;28;20971;-70
2021/07/08 12:00:52;;;;;;;14.80;13.60;;;28.40;99.90;;;;;;5020396;28;20479;-74
2021/07/08 12:03:23;;;;;;;15.60;14.50;;;28.40;99.90;;;;;;5025753;28;20464;-70
2021/07/08 12:05:51;;;;;;;14.90;14.00;;;28.50;99.90;;;;;;5022533;28;20488;-70
2021/07/08 12:08:23;;;;;;;14.10;13.20;;;28.20;99.90;;;;;;5022339;28;20465;-70
2021/07/08 12:10:57;;;;;;;14.37;13.47;;;28.30;99.90;;;;;;5020060;28;20540;-70
2021/07/08 12:13:24;;;;;;;15.00;14.10;;;28.30;99.30;;;;;;5022841;28;20465;-70
2021/07/08 12:15:53;;;;;;;15.07;13.77;;;28.40;99.10;;;;;;5022181;28;20956;-71
2021/07/08 12:18:21;;;;;;;15.03;13.90;;;28.50;99.50;;;;;;5019508;28;20544;-70
2021/07/08 12:20:49;;;;;;;15.63;14.53;;;28.30;99.90;;;;;;5023822;28;20476;-72
2021/07/08 12:23:16;;;;;;;15.60;14.60;;;28.40;99.90;;;;;;5023283;28;20471;-72
2021/07/08 12:25:43;;;;;;;16.27;15.30;;;28.40;99.90;;;;;;5022167;28;20469;-72
2021/07/08 12:28:11;;;;;;;15.30;14.20;;;28.40;99.90;;;;;;5026510;28;20527;-73
2021/07/08 12:30:37;;;;;;;16.50;15.40;;;28.20;99.90;;;;;;5022966;28;20457;-70
2021/07/08 12:33:08;;;;;;;15.87;14.77;;;27.80;99.90;;;;;;5020466;28;20506;-70
2021/07/08 12:35:43;;;;;;;15.30;14.50;;;28.00;99.90;;;;;;5024359;28;20813;-70
2021/07/08 12:38:11;;;;;;;15.50;14.30;;;28.10;99.90;;;;;;5019132;28;20491;-70
2021/07/08 12:40:38;;;;;;;15.83;14.83;;;28.30;99.70;;;;;;5023372;28;20476;-70
2021/07/08 12:43:08;;;;;;;15.67;14.47;;;28.80;99.80;;;;;;5019632;28;20971;-74
2021/07/08 12:45:38;;;;;;;16.13;14.63;;;29.00;99.50;;;;;;5022413;28;20461;-71